Pagrindinis puslapis
METAR-TAF:

METAR-TAF

Oro uostai :

Turinas, Italija

platuma: 45-05-20N, ilguma: 007-36-20E, Aukštis: 288 m

Dabartinis oras

Ataskaita buvo paskelbta 11 valandos ir 2 minutes, ne 15:50 UTC
Vėjas 3 kt iš Šiaurės Rytų, svyruoja nuo Šiaurės ir Rytų
Temperatūra 9°C
Drėgmė 53%
Slėgis 1022 hPa
Matomumas: 8000 m
Su prošvaistėmis ne aukštis 4000 ft

METAR: LIMA 171550Z 05003KT 010V080 8000 BKN040 09/00 Q1022

Laikas: 03:52 (02:52 UTC)


TAF: trūkstamas

Orai ataskaitas ir orų prognozės (METAR, TAF).

turimą stotys yra geltonos ir raudonos taškus žemėlapyje.

Perkelti pele per norėdami pamatyti stoties vardą.

Tada spustelėkite, norėdami matyti oro stebėjimo ir prognozės.

Norėdami pakeisti žemėlapį: spustelėkite ant žalios mygtukų su juodo kryžiaus žemyn,; žalią mygtuką su brūkšneliu, jei norite nutolinti; arba žalių rodyklių gretimoms žemėlapius.


METAR-TAF: